Time;durP1;ratioP1;P1;durP2;ratioP2;P2;SDS_P1;SDS_P2;PMS_P1;PMS_P2;Temp;Humidity;BMP_temperature;BMP_pressure;BME280_temperature;BME280_humidity;BME280_pressure;Samples;Min_cycle;Max_cycle;Signal;HPM_P1;HPM_P2
2021/04/09 00:00:04;;;;;;;17.05;8.83;;;;;;;3.17;65.51;100207.75;1666657;86;21648;-63
2021/04/09 00:02:34;;;;;;;15.00;10.43;;;;;;;3.17;65.62;100212.23;1650364;86;21220;-66
2021/04/09 00:05:08;;;;;;;15.75;10.55;;;;;;;3.16;65.68;100207.45;1669947;86;21196;-69
2021/04/09 00:07:35;;;;;;;14.65;9.73;;;;;;;3.15;65.77;100211.62;1670158;85;21172;-64
2021/04/09 00:12:45;;;;;;;17.33;9.97;;;;;;;3.17;66.03;100216.22;1886681;76;22759;-66
2021/04/09 00:15:13;;;;;;;15.35;10.50;;;;;;;3.10;66.13;100216.67;1788790;80;21022;-64
2021/04/09 00:17:44;;;;;;;14.13;10.88;;;;;;;3.06;66.20;100219.72;1822328;78;21365;-65
2021/04/09 00:20:15;;;;;;;15.78;9.28;;;;;;;3.07;66.24;100216.53;1817550;78;21019;-66
2021/04/09 00:22:44;;;;;;;15.25;11.95;;;;;;;3.06;66.38;100224.21;1819288;78;21603;-65
2021/04/09 00:25:13;;;;;;;13.72;10.63;;;;;;;3.04;66.39;100229.70;1819208;78;21536;-65
2021/04/09 00:27:42;;;;;;;13.72;11.05;;;;;;;3.03;66.54;100232.03;1813897;78;21119;-63
2021/04/09 00:30:17;;;;;;;14.10;10.53;;;;;;;3.03;66.62;100228.55;1762236;81;21439;-63
2021/04/09 00:32:46;;;;;;;13.95;10.50;;;;;;;3.03;66.73;100236.52;1764241;80;21578;-63
2021/04/09 00:35:14;;;;;;;14.58;10.00;;;;;;;3.01;66.92;100239.39;1762325;81;21591;-62
2021/04/09 00:37:44;;;;;;;15.05;8.60;;;;;;;3.01;67.02;100238.56;1762183;81;21598;-62
2021/04/09 00:40:13;;;;;;;14.00;10.20;;;;;;;2.98;67.21;100241.07;1762239;81;21125;-65
2021/04/09 00:42:42;;;;;;;17.90;10.53;;;;;;;2.95;67.29;100246.77;1769314;80;21019;-66
2021/04/09 00:45:13;;;;;;;13.22;9.40;;;;;;;2.92;67.38;100247.66;1774711;79;21193;-65
2021/04/09 00:47:42;;;;;;;16.75;9.78;;;;;;;2.89;67.56;100251.49;1773782;80;20968;-66
2021/04/09 00:50:12;;;;;;;17.95;11.60;;;;;;;2.86;67.71;100248.39;1809031;79;21639;-64
2021/04/09 00:52:42;;;;;;;11.43;9.75;;;;;;;2.83;67.95;100257.55;1780329;80;21102;-64
2021/04/09 00:55:12;;;;;;;12.60;9.50;;;;;;;2.78;68.12;100251.16;1815971;79;21204;-65
2021/04/09 00:57:39;;;;;;;11.38;8.70;;;;;;;2.76;68.43;100260.64;1815864;79;21162;-66
2021/04/09 01:00:11;;;;;;;13.75;10.65;;;;;;;2.75;68.69;100256.83;1786846;80;21169;-68
2021/04/09 01:02:38;;;;;;;18.07;12.10;;;;;;;2.71;68.86;100255.05;1784012;79;21581;-67
2021/04/09 01:05:09;;;;;;;11.53;10.00;;;;;;;2.69;69.01;100253.08;1756301;81;21071;-68
2021/04/09 01:07:39;;;;;;;13.35;10.03;;;;;;;2.69;69.12;100258.39;1763063;80;21442;-66
2021/04/09 01:10:08;;;;;;;13.62;9.05;;;;;;;2.67;69.26;100254.28;1760849;80;21647;-65
2021/04/09 01:12:36;;;;;;;13.68;10.20;;;;;;;2.64;69.50;100261.59;1783753;80;21600;-66
2021/04/09 01:15:07;;;;;;;11.88;10.32;;;;;;;2.61;69.74;100266.46;1779184;80;21778;-66
2021/04/09 01:17:53;;;;;;;11.73;8.85;;;;;;;2.60;70.00;100270.95;1800459;79;20995;-67
2021/04/09 01:20:38;;;;;;;11.07;8.23;;;;;;;2.56;70.34;100267.52;1773648;79;22116;-65
2021/04/09 01:23:47;;;;;;;18.42;10.35;;;;;;;2.52;70.41;100271.05;1799888;79;21097;-61
2021/04/09 01:26:58;;;;;;;11.60;9.05;;;;;;;2.49;70.81;100275.91;1799691;79;20982;-63
2021/04/09 01:29:43;;;;;;;13.07;10.33;;;;;;;2.43;71.24;100276.64;1778363;79;21583;-62
2021/04/09 01:32:13;;;;;;;12.50;9.13;;;;;;;2.38;71.58;100280.34;1769570;81;21069;-63
2021/04/09 01:34:47;;;;;;;15.20;10.80;;;;;;;2.35;71.94;100281.51;1780176;79;21208;-63
2021/04/09 01:37:26;;;;;;;12.10;9.73;;;;;;;2.35;72.04;100280.71;1850641;77;21137;-67
2021/04/09 01:40:18;;;;;;;12.50;9.97;;;;;;;2.33;72.23;100280.88;1829655;77;21157;-62
2021/04/09 01:42:50;;;;;;;13.80;10.70;;;;;;;2.32;72.59;100286.36;1826381;77;21059;-62
2021/04/09 01:45:18;;;;;;;11.97;9.43;;;;;;;2.33;72.75;100294.66;1825175;77;21160;-61
2021/04/09 01:47:46;;;;;;;14.40;10.73;;;;;;;2.34;72.86;100291.83;1822393;77;22119;-64
2021/04/09 01:50:16;;;;;;;12.07;10.43;;;;;;;2.34;72.98;100294.98;1818888;77;20987;-60
2021/04/09 01:52:46;;;;;;;15.33;10.80;;;;;;;2.35;73.09;100296.64;1827467;77;21567;-65
2021/04/09 01:55:15;;;;;;;13.60;9.97;;;;;;;2.34;73.46;100302.45;1757245;81;21190;-64
2021/04/09 01:57:44;;;;;;;12.27;10.00;;;;;;;2.33;73.58;100306.09;1757258;81;21163;-63
2021/04/09 02:00:18;;;;;;;15.97;10.73;;;;;;;2.33;73.70;100306.09;1757314;81;21335;-67
2021/04/09 02:02:47;;;;;;;13.73;10.57;;;;;;;2.32;73.82;100304.95;1757327;81;21071;-62
2021/04/09 02:05:19;;;;;;;10.20;9.10;;;;;;;2.31;73.81;100312.08;1771337;80;21188;-60
2021/04/09 02:07:47;;;;;;;12.63;9.57;;;;;;;2.30;74.02;100310.45;1765751;80;21165;-63
2021/04/09 02:10:19;;;;;;;16.20;11.03;;;;;;;2.29;74.18;100312.78;1758981;80;21646;-62
2021/04/09 02:12:47;;;;;;;15.13;10.27;;;;;;;2.27;74.31;100317.43;1764665;80;21797;-62
2021/04/09 02:15:20;;;;;;;14.60;10.63;;;;;;;2.26;74.50;100319.75;1759638;80;21602;-62
2021/04/09 02:17:49;;;;;;;13.57;10.13;;;;;;;2.26;74.68;100318.93;1766773;81;21071;-62
2021/04/09 02:20:19;;;;;;;11.60;10.40;;;;;;;2.24;74.69;100317.80;1766627;79;21177;-64
2021/04/09 02:22:49;;;;;;;13.63;9.30;;;;;;;2.24;74.85;100331.07;1789677;78;21191;-62
2021/04/09 02:25:20;;;;;;;11.43;10.17;;;;;;;2.24;74.89;100323.11;1789735;78;21253;-61
2021/04/09 02:27:52;;;;;;;13.40;9.50;;;;;;;2.24;74.96;100332.90;1789007;80;21020;-62
2021/04/09 02:30:22;;;;;;;14.53;10.67;;;;;;;2.21;75.13;100328.76;1788943;80;21139;-62
2021/04/09 02:32:51;;;;;;;14.27;10.67;;;;;;;2.18;75.40;100331.78;1804248;78;21574;-62
2021/04/09 02:35:21;;;;;;;13.27;10.77;;;;;;;2.16;75.55;100333.28;1819384;78;21142;-62
2021/04/09 02:37:52;;;;;;;13.27;10.83;;;;;;;2.13;75.64;100333.66;1821969;78;21827;-61
2021/04/09 02:40:27;;;;;;;12.97;10.03;;;;;;;2.13;75.79;100340.78;1821917;78;21043;-62
2021/04/09 02:42:55;;;;;;;12.37;10.43;;;;;;;2.11;75.92;100347.59;1813522;78;21159;-61
2021/04/09 02:45:24;;;;;;;18.90;11.40;;;;;;;2.10;76.07;100344.63;1776120;80;21165;-62
2021/04/09 02:47:54;;;;;;;19.37;14.07;;;;;;;2.07;76.22;100346.30;1796071;79;21707;-62
2021/04/09 02:50:32;;;;;;;13.33;10.73;;;;;;;2.05;76.27;100349.65;1798267;79;21373;-62
2021/04/09 02:53:11;;;;;;;12.27;9.70;;;;;;;2.04;76.39;100354.63;1786678;80;21165;-61
2021/04/09 02:55:42;;;;;;;15.20;12.70;;;;;;;2.02;76.71;100353.14;1760311;79;21554;-62
2021/04/09 02:58:11;;;;;;;17.13;12.27;;;;;;;2.00;76.78;100357.31;1816538;78;21189;-63
2021/04/09 03:00:47;;;;;;;16.30;11.83;;;;;;;2.01;77.02;100360.80;1789995;79;21126;-61
2021/04/09 03:03:16;;;;;;;14.00;10.07;;;;;;;2.00;77.13;100365.27;1778295;80;22249;-63
2021/04/09 03:05:44;;;;;;;15.40;11.73;;;;;;;2.01;77.32;100378.05;1791051;79;21598;-62
2021/04/09 03:08:13;;;;;;;12.67;10.63;;;;;;;1.97;77.36;100376.22;1787428;80;21568;-62
2021/04/09 03:10:40;;;;;;;13.90;11.53;;;;;;;1.97;77.48;100378.88;1821358;78;21218;-61
2021/04/09 03:13:08;;;;;;;13.97;10.27;;;;;;;1.95;77.57;100383.55;1809244;78;21150;-66
2021/04/09 03:15:44;;;;;;;13.97;10.07;;;;;;;1.94;77.71;100391.67;1767416;80;21220;-62
2021/04/09 03:18:12;;;;;;;15.10;12.57;;;;;;;1.93;77.80;100394.00;1731911;81;21742;-62
2021/04/09 03:20:41;;;;;;;12.53;10.03;;;;;;;1.93;77.79;100406.76;1786855;80;21556;-64
2021/04/09 03:23:09;;;;;;;14.13;10.77;;;;;;;1.91;77.88;100398.17;1792807;78;21150;-62
2021/04/09 03:25:37;;;;;;;12.43;10.40;;;;;;;1.88;78.01;100406.46;1766804;79;21707;-61
2021/04/09 03:28:06;;;;;;;12.87;11.23;;;;;;;1.87;78.13;100408.78;1764858;79;22316;-62
2021/04/09 03:30:34;;;;;;;14.07;11.03;;;;;;;1.87;78.18;100411.44;1763985;81;21206;-62
2021/04/09 03:33:03;;;;;;;11.93;10.33;;;;;;;1.87;78.24;100409.31;1765828;79;21008;-64
2021/04/09 03:35:32;;;;;;;18.90;11.37;;;;;;;1.89;78.32;100413.92;1812604;78;21026;-63
2021/04/09 03:38:00;;;;;;;14.97;11.47;;;;;;;1.92;78.29;100414.91;1774655;80;21625;-62
2021/04/09 03:40:29;;;;;;;13.60;12.00;;;;;;;1.96;78.24;100425.49;1755624;81;21201;-64
2021/04/09 03:42:57;;;;;;;11.47;9.40;;;;;;;1.99;78.17;100423.80;1787995;80;21015;-62
2021/04/09 03:45:27;;;;;;;16.47;11.47;;;;;;;2.01;78.11;100434.58;1772617;79;21042;-63
2021/04/09 03:47:56;;;;;;;13.77;11.70;;;;;;;2.01;78.04;100446.52;1764120;79;21018;-63
2021/04/09 03:50:25;;;;;;;12.43;10.47;;;;;;;1.98;78.04;100444.20;1770708;79;21188;-62
2021/04/09 03:52:53;;;;;;;13.53;10.33;;;;;;;1.95;78.13;100449.86;1800703;79;21267;-65
2021/04/09 03:55:21;;;;;;;10.63;9.10;;;;;;;1.92;78.19;100448.87;1786669;80;21030;-62
2021/04/09 03:57:51;;;;;;;15.40;8.97;;;;;;;1.90;78.28;100449.56;1761428;79;21107;-63
2021/04/09 04:00:21;;;;;;;15.50;11.53;;;;;;;1.90;78.35;100452.71;1772464;79;21651;-63
2021/04/09 04:02:51;;;;;;;15.40;12.17;;;;;;;1.90;78.38;100456.19;1772428;79;21587;-66
2021/04/09 04:05:20;;;;;;;13.47;10.87;;;;;;;1.89;78.50;100455.86;1772156;79;22114;-61
2021/04/09 04:07:48;;;;;;;14.40;10.37;;;;;;;1.91;78.54;100463.66;1766099;79;21176;-63
2021/04/09 04:10:18;;;;;;;11.87;9.87;;;;;;;1.91;78.57;100464.98;1786265;79;21146;-63
2021/04/09 04:12:45;;;;;;;17.63;13.20;;;;;;;1.92;78.66;100474.59;1801297;78;21131;-63
2021/04/09 04:15:13;;;;;;;14.47;9.90;;;;;;;1.94;78.66;100469.92;1760925;81;21638;-61
2021/04/09 04:17:42;;;;;;;18.80;14.07;;;;;;;1.99;78.67;100471.05;1762834;81;21190;-63
2021/04/09 04:20:11;;;;;;;16.40;11.17;;;;;;;2.02;78.57;100478.66;1822703;78;21093;-64
2021/04/09 04:22:39;;;;;;;16.43;11.77;;;;;;;2.07;78.50;100486.09;1824640;78;21120;-62
2021/04/09 04:25:09;;;;;;;18.57;14.30;;;;;;;2.07;78.44;100481.61;1797607;78;21109;-64
2021/04/09 04:27:37;;;;;;;15.17;11.37;;;;;;;2.10;78.41;100489.23;1825397;78;21173;-62
2021/04/09 04:30:06;;;;;;;14.57;12.90;;;;;;;2.14;78.41;100489.70;1825238;78;21165;-66
2021/04/09 04:32:34;;;;;;;17.73;12.83;;;;;;;2.16;78.36;100496.97;1825326;78;22264;-62
2021/04/09 04:35:02;;;;;;;14.70;11.27;;;;;;;2.22;78.36;100502.91;1819942;78;21051;-62
2021/04/09 04:37:30;;;;;;;15.47;12.97;;;;;;;2.26;78.28;100502.05;1812939;79;21547;-62
2021/04/09 04:39:58;;;;;;;16.30;13.83;;;;;;;2.33;78.21;100507.81;1813170;78;21154;-62
2021/04/09 04:42:26;;;;;;;13.60;11.00;;;;;;;2.39;78.07;100512.43;1816459;78;21417;-62
2021/04/09 04:44:54;;;;;;;16.23;13.10;;;;;;;2.44;77.96;100506.59;1825277;78;21117;-61
2021/04/09 04:47:22;;;;;;;15.07;11.53;;;;;;;2.51;77.79;100514.16;1825069;78;21783;-61
2021/04/09 04:49:50;;;;;;;15.57;12.63;;;;;;;2.55;77.65;100522.91;1825290;78;21172;-63
2021/04/09 04:52:19;;;;;;;15.27;12.13;;;;;;;2.59;77.44;100518.89;1825249;78;21176;-62
2021/04/09 04:54:47;;;;;;;19.77;13.70;;;;;;;2.60;77.35;100529.84;1825423;78;21628;-63
2021/04/09 04:57:15;;;;;;;13.97;12.37;;;;;;;2.63;77.25;100522.88;1825249;78;20987;-63
2021/04/09 04:59:42;;;;;;;18.27;13.08;;;;;;;2.68;77.21;100526.81;1817719;78;21098;-63
2021/04/09 05:02:11;;;;;;;14.63;11.07;;;;;;;2.76;77.22;100530.23;1823082;78;21054;-62
2021/04/09 05:04:40;;;;;;;14.60;11.57;;;;;;;2.85;76.99;100534.46;1825475;78;21251;-63
2021/04/09 05:07:08;;;;;;;25.60;14.35;;;;;;;2.91;76.67;100536.41;1793129;78;21204;-64
2021/04/09 05:09:35;;;;;;;13.28;11.40;;;;;;;2.93;76.55;100539.70;1792985;80;21472;-64
2021/04/09 05:12:05;;;;;;;21.60;14.47;;;;;;;2.97;76.43;100542.31;1794153;78;21161;-63
2021/04/09 05:14:32;;;;;;;14.60;12.13;;;;;;;2.98;76.30;100540.48;1750555;82;21093;-62
2021/04/09 05:17:02;;;;;;;18.05;13.48;;;;;;;3.01;76.28;100545.46;1755718;80;21259;-63
2021/04/09 05:19:30;;;;;;;16.35;13.38;;;;;;;3.05;76.18;100550.73;1756467;80;22069;-64
2021/04/09 05:21:58;;;;;;;15.95;12.25;;;;;;;3.07;76.10;100552.19;1780118;80;21561;-62
2021/04/09 05:24:26;;;;;;;16.52;13.88;;;;;;;3.10;76.05;100556.34;1814397;79;20976;-63
2021/04/09 05:26:56;;;;;;;15.50;12.10;;;;;;;3.14;76.02;100562.94;1786761;80;21055;-63
2021/04/09 05:29:24;;;;;;;18.15;13.35;;;;;;;3.16;76.03;100555.63;1815332;79;21110;-64
2021/04/09 05:31:53;;;;;;;16.02;14.23;;;;;;;3.21;76.03;100557.23;1786814;80;21294;-64
2021/04/09 05:34:21;;;;;;;16.05;13.75;;;;;;;3.29;76.00;100564.30;1788347;79;21185;-62
2021/04/09 05:36:49;;;;;;;18.05;14.23;;;;;;;3.35;75.90;100562.25;1773286;80;20944;-62
2021/04/09 05:39:16;;;;;;;20.40;15.63;;;;;;;3.44;75.80;100561.16;1790976;78;21614;-63
2021/04/09 05:41:45;;;;;;;19.07;14.55;;;;;;;3.56;75.67;100559.68;1755652;81;21162;-62
2021/04/09 05:44:13;;;;;;;17.32;13.13;;;;;;;3.68;75.44;100570.70;1756443;80;22048;-64
2021/04/09 05:46:42;;;;;;;19.02;14.55;;;;;;;3.82;75.21;100569.88;1783985;80;21165;-64
2021/04/09 05:49:11;;;;;;;15.90;14.00;;;;;;;3.93;74.84;100574.73;1796347;79;21181;-62
2021/04/09 05:51:39;;;;;;;21.30;14.95;;;;;;;4.04;74.57;100565.42;1853078;77;21106;-61
2021/04/09 05:54:08;;;;;;;19.50;13.55;;;;;;;4.14;74.40;100574.78;1827647;78;21166;-61
2021/04/09 05:56:35;;;;;;;19.65;14.30;;;;;;;4.25;74.13;100575.64;1777424;80;21449;-67
2021/04/09 05:59:04;;;;;;;19.10;15.28;;;;;;;4.34;73.82;100574.52;1797098;79;21101;-62
2021/04/09 06:01:32;;;;;;;21.12;14.58;;;;;;;4.41;73.29;100575.93;1788284;80;21570;-65
2021/04/09 06:04:00;;;;;;;22.37;15.28;;;;;;;4.50;73.31;100580.63;1788495;80;21122;-64
2021/04/09 06:06:28;;;;;;;17.92;12.68;;;;;;;4.57;73.03;100580.17;1779396;79;21648;-62
2021/04/09 06:08:57;;;;;;;17.32;13.78;;;;;;;4.66;72.71;100579.03;1772096;79;21263;-63
2021/04/09 06:11:25;;;;;;;21.35;15.32;;;;;;;4.72;72.33;100580.95;1786213;79;21674;-62
2021/04/09 06:13:53;;;;;;;20.12;14.95;;;;;;;4.81;72.22;100586.47;1795342;79;21157;-61
2021/04/09 06:16:22;;;;;;;18.12;12.55;;;;;;;4.91;71.95;100586.15;1764580;79;21198;-63
2021/04/09 06:18:50;;;;;;;19.37;14.87;;;;;;;5.02;71.81;100585.14;1764045;79;21641;-62
2021/04/09 06:21:19;;;;;;;20.97;15.10;;;;;;;5.19;71.55;100587.01;1763745;81;21209;-63
2021/04/09 06:23:46;;;;;;;18.10;13.72;;;;;;;5.36;71.07;100592.91;1763662;81;21196;-63
2021/04/09 06:26:14;;;;;;;14.78;12.05;;;;;;;5.49;70.44;100587.66;1763891;81;21534;-63
2021/04/09 06:28:42;;;;;;;16.60;13.60;;;;;;;5.57;69.57;100588.32;1772601;79;21160;-61
2021/04/09 06:31:09;;;;;;;20.65;14.53;;;;;;;5.65;69.20;100592.19;1787646;79;21587;-64
2021/04/09 06:33:39;;;;;;;15.23;11.05;;;;;;;5.69;68.78;100595.28;1786395;78;21583;-63
2021/04/09 06:36:08;;;;;;;18.40;13.35;;;;;;;5.77;68.28;100591.12;1755654;81;21161;-65
2021/04/09 06:38:36;;;;;;;18.82;12.13;;;;;;;5.83;68.10;100601.52;1772211;80;21153;-65
2021/04/09 06:41:04;;;;;;;16.80;13.22;;;;;;;5.89;67.86;100601.61;1815330;79;21157;-64
2021/04/09 06:43:32;;;;;;;15.43;12.90;;;;;;;5.99;67.55;100612.75;1786210;80;21122;-64
2021/04/09 06:46:02;;;;;;;18.27;14.60;;;;;;;5.99;67.55;100612.75;1741732;79;22444;-62
2021/04/09 06:48:30;;;;;;;18.82;13.48;;;;;;;5.99;67.61;100613.27;1740451;82;21181;-64
2021/04/09 06:50:59;;;;;;;19.10;13.80;;;;;;;5.98;67.66;100614.28;1742685;81;21153;-65
2021/04/09 06:53:27;;;;;;;14.25;12.20;;;;;;;6.00;67.54;100621.56;1756767;81;21129;-62
2021/04/09 06:55:55;;;;;;;14.87;12.37;;;;;;;5.99;67.08;100615.94;1729739;81;21238;-63
2021/04/09 06:58:24;;;;;;;18.60;14.25;;;;;;;5.98;66.77;100620.95;1747331;81;21468;-63
2021/04/09 07:00:55;;;;;;;15.80;13.75;;;;;;;5.98;66.07;100624.95;1746937;81;21871;-64
2021/04/09 07:03:22;;;;;;;18.87;12.60;;;;;;;5.98;66.07;100624.95;1729946;81;21189;-62
2021/04/09 07:05:51;;;;;;;19.73;15.03;;;;;;;6.00;65.90;100622.89;1756891;81;21161;-64
2021/04/09 07:08:19;;;;;;;17.52;12.45;;;;;;;6.03;65.82;100630.02;1756995;81;21210;-63
2021/04/09 07:10:47;;;;;;;16.27;14.03;;;;;;;6.05;65.71;100626.63;1753908;81;22737;-66
2021/04/09 07:13:15;;;;;;;22.02;17.02;;;;;;;6.08;65.48;100630.77;1746720;81;21165;-63
2021/04/09 07:15:46;;;;;;;29.98;21.55;;;;;;;6.11;65.49;100633.86;1742196;82;21007;-63
2021/04/09 07:18:16;;;;;;;22.87;14.47;;;;;;;6.11;65.09;100633.86;1742293;82;21618;-64
2021/04/09 07:20:44;;;;;;;20.45;14.85;;;;;;;6.12;65.02;100636.02;1727294;82;21173;-62
2021/04/09 07:23:13;;;;;;;17.10;10.95;;;;;;;6.17;64.79;100630.91;1742351;82;21206;-62
2021/04/09 07:25:45;;;;;;;14.80;12.13;;;;;;;6.24;64.44;100640.27;1742245;82;21570;-63
2021/04/09 07:28:23;;;;;;;12.73;11.08;;;;;;;6.27;64.40;100638.05;1771545;81;21550;-63
2021/04/09 07:30:54;;;;;;;16.17;12.28;;;;;;;6.35;64.00;100640.55;1773441;80;21112;-63
2021/04/09 07:33:24;;;;;;;18.37;13.53;;;;;;;6.40;63.68;100645.29;1793764;79;21666;-64
2021/04/09 07:35:58;;;;;;;16.95;13.03;;;;;;;6.43;62.68;100644.88;1771285;81;21287;-63
2021/04/09 07:38:34;;;;;;;14.40;12.03;;;;;;;6.46;61.77;100640.49;1773373;80;21179;-66
2021/04/09 07:41:06;;;;;;;16.57;10.45;;;;;;;6.51;61.21;100645.55;1771335;81;21106;-63
2021/04/09 07:43:42;;;;;;;13.40;10.63;;;;;;;6.57;60.09;100638.05;1773622;79;21005;-63
2021/04/09 07:46:21;;;;;;;14.10;11.57;;;;;;;6.64;59.73;100643.43;1771327;80;21172;-64
2021/04/09 07:49:03;;;;;;;14.33;10.80;;;;;;;6.69;59.54;100643.66;1773485;80;21448;-63
2021/04/09 07:51:33;;;;;;;11.40;9.90;;;;;;;6.78;59.12;100646.96;1774144;79;21184;-62
2021/04/09 07:54:10;;;;;;;12.53;10.05;;;;;;;6.86;57.90;100641.42;1771302;80;21145;-63
2021/04/09 07:56:45;;;;;;;13.48;10.90;;;;;;;6.91;56.67;100642.47;1773532;80;21141;-62
2021/04/09 07:59:13;;;;;;;14.05;11.18;;;;;;;6.97;56.65;100645.67;1771914;79;21157;-64
2021/04/09 08:01:47;;;;;;;17.50;11.65;;;;;;;7.01;56.00;100648.25;1773473;80;21279;-63
2021/04/09 08:04:15;;;;;;;11.43;9.40;;;;;;;7.05;55.69;100648.66;1771247;81;21642;-63
2021/04/09 08:06:43;;;;;;;12.07;9.53;;;;;;;7.14;54.56;100642.12;1779876;79;21157;-64
2021/04/09 08:09:11;;;;;;;14.68;8.98;;;;;;;7.22;53.68;100645.92;1805268;79;21233;-63
2021/04/09 08:11:39;;;;;;;14.80;9.50;;;;;;;7.32;52.83;100642.84;1802927;79;21165;-64
2021/04/09 08:14:13;;;;;;;12.05;10.05;;;;;;;7.41;52.42;100645.11;1791475;79;22335;-63
2021/04/09 08:16:47;;;;;;;13.98;10.85;;;;;;;7.49;52.15;100644.58;1761822;81;21237;-62
2021/04/09 08:19:21;;;;;;;12.53;9.60;;;;;;;7.56;52.56;100650.26;1762124;81;21547;-65
2021/04/09 08:21:56;;;;;;;14.73;8.80;;;;;;;7.60;52.07;100646.13;1761889;81;21142;-63
2021/04/09 08:24:32;;;;;;;11.18;8.70;;;;;;;7.63;51.66;100647.05;1704216;84;21113;-63
2021/04/09 08:27:00;;;;;;;10.45;9.35;;;;;;;7.66;51.71;100646.65;1762084;81;22381;-63
2021/04/09 08:29:30;;;;;;;14.60;9.55;;;;;;;7.68;51.52;100635.20;1761893;81;21181;-63
2021/04/09 08:32:02;;;;;;;12.18;9.40;;;;;;;7.72;50.99;100632.95;1762107;81;21613;-64
2021/04/09 08:34:29;;;;;;;10.28;8.13;;;;;;;7.74;49.94;100644.26;1762147;81;21691;-63
2021/04/09 08:36:58;;;;;;;10.70;9.03;;;;;;;7.76;50.45;100630.98;1706559;82;21121;-65
2021/04/09 08:39:28;;;;;;;12.85;9.35;;;;;;;7.83;50.41;100630.95;1709206;82;21196;-64
2021/04/09 08:41:57;;;;;;;11.30;8.83;;;;;;;7.90;50.51;100637.14;1733599;82;21098;-63
2021/04/09 08:44:26;;;;;;;12.58;10.13;;;;;;;8.03;50.13;100640.30;1711749;81;21121;-63
2021/04/09 08:46:54;;;;;;;10.85;8.33;;;;;;;8.12;50.15;100637.17;1703002;84;21595;-62
2021/04/09 08:49:23;;;;;;;12.53;8.73;;;;;;;8.18;49.59;100636.34;1704381;84;21160;-62
2021/04/09 08:51:51;;;;;;;11.08;7.55;;;;;;;8.18;48.07;100639.02;1775506;80;23525;-61
2021/04/09 08:54:22;;;;;;;9.98;7.58;;;;;;;8.16;47.34;100653.65;1775419;80;21182;-62
2021/04/09 08:56:51;;;;;;;5.37;4.87;;;;;;;8.16;47.26;100643.75;1775545;80;21004;-63
2021/04/09 08:59:41;;;;;;;6.53;5.90;;;;;;;8.16;44.63;100646.44;1775472;80;21113;-62
2021/04/09 09:02:26;;;;;;;7.58;6.08;;;;;;;8.15;44.95;100645.33;1784030;80;21638;-64
2021/04/09 09:05:02;;;;;;;5.67;5.00;;;;;;;8.17;43.36;100640.05;1772677;80;21193;-65
2021/04/09 09:07:58;;;;;;;8.75;5.90;;;;;;;8.25;43.84;100637.64;1762312;80;21034;-64
2021/04/09 09:10:36;;;;;;;7.00;4.50;;;;;;;8.31;42.96;100638.17;1714692;82;21574;-66
2021/04/09 09:13:16;;;;;;;10.25;6.08;;;;;;;8.40;41.88;100641.44;1731858;82;21623;-63
2021/04/09 09:15:54;;;;;;;6.15;5.37;;;;;;;8.35;42.57;100644.75;1783351;80;21551;-62
2021/04/09 09:18:28;;;;;;;8.45;6.42;;;;;;;8.38;43.57;100640.33;1793650;80;22285;-64
2021/04/09 09:21:20;;;;;;;12.07;7.72;;;;;;;8.45;43.62;100645.12;1762210;80;21011;-67
2021/04/09 09:23:57;;;;;;;6.17;5.10;;;;;;;8.50;43.72;100657.37;1762024;81;21595;-64
2021/04/09 09:26:43;;;;;;;5.17;4.58;;;;;;;8.47;41.59;100667.20;1762769;80;21547;-67
2021/04/09 09:29:27;;;;;;;3.40;3.10;;;;;;;8.40;40.87;100665.05;1753368;81;21629;-64
2021/04/09 09:32:04;;;;;;;3.80;3.30;;;;;;;8.40;40.13;100662.37;1762068;81;21443;-63
2021/04/09 09:34:44;;;;;;;3.58;2.83;;;;;;;8.43;38.99;100666.50;1762030;81;21209;-64
2021/04/09 09:37:21;;;;;;;4.53;4.12;;;;;;;8.44;39.27;100656.88;1706348;82;21165;-66
2021/04/09 09:42:42;;;;;;;6.42;3.92;;;;;;;8.45;39.32;100659.88;1843019;76;28613;-63
2021/04/09 09:45:21;;;;;;;9.05;4.40;;;;;;;8.51;39.59;100664.91;1785033;80;20995;-63
2021/04/09 09:47:49;;;;;;;5.40;4.03;;;;;;;8.63;38.43;100660.00;1783587;79;21673;-63
2021/04/09 09:50:22;;;;;;;4.55;4.05;;;;;;;8.72;38.41;100653.38;1734748;82;20971;-65
2021/04/09 09:53:07;;;;;;;4.17;3.02;;;;;;;8.79;38.83;100655.19;1720754;82;21014;-63
2021/04/09 09:55:48;;;;;;;5.25;3.35;;;;;;;8.90;38.58;100663.39;1726669;81;21038;-63
2021/04/09 09:58:22;;;;;;;7.67;3.60;;;;;;;8.97;38.10;100667.39;1729977;82;21017;-63
2021/04/09 10:00:59;;;;;;;3.10;2.67;;;;;;;9.04;38.43;100661.45;1754800;81;21371;-64
2021/04/09 10:03:32;;;;;;;4.90;3.55;;;;;;;9.08;37.52;100664.82;1757707;81;21014;-63
2021/04/09 10:06:12;;;;;;;6.47;2.92;;;;;;;9.07;38.03;100669.05;1732340;82;21058;-63
2021/04/09 10:08:43;;;;;;;3.45;2.83;;;;;;;9.13;37.32;100662.31;1780907;80;21019;-62
2021/04/09 10:11:19;;;;;;;4.08;2.52;;;;;;;9.24;37.24;100659.98;1791612;79;21177;-67
2021/04/09 10:13:49;;;;;;;4.03;2.87;;;;;;;9.37;37.11;100661.22;1786036;79;21185;-64
2021/04/09 10:16:25;;;;;;;3.50;3.17;;;;;;;9.46;36.17;100649.16;1765396;79;21054;-63
2021/04/09 10:18:57;;;;;;;4.45;2.95;;;;;;;9.49;35.83;100657.63;1703908;84;21050;-62
2021/04/09 10:21:33;;;;;;;3.77;3.42;;;;;;;9.54;35.91;100654.28;1720515;83;21582;-69
2021/04/09 10:24:19;;;;;;;3.22;2.62;;;;;;;9.52;36.54;100669.78;1735633;82;21184;-65
2021/04/09 10:26:54;;;;;;;4.67;3.70;;;;;;;9.47;36.29;100661.03;1710645;82;21382;-66
2021/04/09 10:29:36;;;;;;;3.33;3.02;;;;;;;9.37;36.50;100649.95;1705048;84;21132;-63
2021/04/09 10:32:07;;;;;;;2.67;2.20;;;;;;;9.30;35.45;100652.41;1720520;83;20997;-66
2021/04/09 10:34:35;;;;;;;4.47;3.85;;;;;;;9.29;33.39;100655.61;1728833;82;21010;-63
2021/04/09 10:37:06;;;;;;;1.98;1.82;;;;;;;9.37;33.45;100651.30;1784921;80;21003;-61
2021/04/09 10:39:38;;;;;;;2.92;2.62;;;;;;;9.46;33.52;100645.13;1784552;80;20979;-63
2021/04/09 10:42:06;;;;;;;4.60;4.08;;;;;;;9.56;32.71;100645.47;1784783;80;21559;-61
2021/04/09 10:44:34;;;;;;;4.53;3.30;;;;;;;9.64;32.80;100639.81;1756635;80;21617;-64
2021/04/09 10:47:05;;;;;;;3.35;2.30;;;;;;;9.79;33.24;100638.95;1784882;80;21014;-66
2021/04/09 10:49:42;;;;;;;4.25;3.42;;;;;;;9.89;32.07;100636.58;1784130;80;21125;-67
2021/04/09 10:52:18;;;;;;;2.62;2.35;;;;;;;9.92;32.01;100637.50;1783960;80;22129;-66
2021/04/09 10:54:49;;;;;;;5.60;3.02;;;;;;;9.99;32.53;100644.13;1763451;80;21023;-68
2021/04/09 10:57:19;;;;;;;4.33;2.45;;;;;;;10.08;32.43;100646.81;1753749;80;21178;-63
2021/04/09 10:59:51;;;;;;;2.62;2.25;;;;;;;10.08;32.40;100640.09;1703401;84;21081;-64
2021/04/09 11:02:24;;;;;;;3.77;2.33;;;;;;;10.12;32.60;100642.63;1689954;83;21183;-66
2021/04/09 11:04:56;;;;;;;3.80;2.17;;;;;;;10.26;32.52;100636.13;1703310;84;21230;-64
2021/04/09 11:07:41;;;;;;;;;;;;;;;10.38;32.04;100636.18;1692026;85;21620;-66
2021/04/09 11:10:32;;;;;;;2.15;1.95;;;;;;;10.41;32.11;100639.75;1714277;83;20294;-66
2021/04/09 11:13:00;;;;;;;2.80;2.35;;;;;;;10.42;31.95;100636.02;1696036;83;21334;-63
2021/04/09 11:15:44;;;;;;;4.45;2.45;;;;;;;10.35;32.23;100654.94;1719819;83;21223;-65
2021/04/09 11:18:14;;;;;;;4.97;3.35;;;;;;;10.37;32.09;100643.94;1719877;83;21220;-65
2021/04/09 11:20:44;;;;;;;2.90;2.22;;;;;;;10.31;31.62;100634.11;1731399;82;21022;-66
2021/04/09 11:23:16;;;;;;;3.02;2.67;;;;;;;10.20;31.89;100642.91;1721401;82;21570;-66
2021/04/09 11:25:49;;;;;;;5.87;2.72;;;;;;;10.14;32.13;100635.70;1751517;81;21046;-63
2021/04/09 11:28:25;;;;;;;3.37;2.72;;;;;;;10.15;32.52;100638.70;1703713;84;22291;-66
2021/04/09 11:31:04;;;;;;;5.17;3.75;;;;;;;10.17;32.12;100636.09;1718133;83;21436;-66
2021/04/09 11:33:37;;;;;;;3.67;3.10;;;;;;;10.14;31.59;100635.70;1745782;82;21213;-65
2021/04/09 11:36:19;;;;;;;2.37;2.15;;;;;;;10.11;32.11;100625.41;1731637;82;21066;-64
2021/04/09 11:39:06;;;;;;;6.05;2.87;;;;;;;10.14;31.52;100624.95;1725278;82;21196;-67
2021/04/09 11:41:35;;;;;;;3.30;2.47;;;;;;;10.11;32.24;100630.78;1718651;82;21186;-64
2021/04/09 11:44:36;;;;;;;3.80;3.10;;;;;;;10.11;32.31;100630.27;1726471;83;22133;-66
2021/04/09 11:47:25;;;;;;;7.60;4.42;;;;;;;10.12;32.59;100625.72;1732402;82;21172;-64